Time;durP1;ratioP1;P1;durP2;ratioP2;P2;SDS_P1;SDS_P2;PMS_P1;PMS_P2;Temp;Humidity;BMP_temperature;BMP_pressure;BME280_temperature;BME280_humidity;BME280_pressure;Samples;Min_cycle;Max_cycle;Signal;HPM_P1;HPM_P2
2022/05/10 00:01:30;;;;;;;;;;;;;;;22.52;81.60;99412.34;5008273;28;20410;-37
2022/05/10 00:03:56;;;;;;;;;;;;;;;23.29;79.15;99398.63;5023652;28;19917;-37
2022/05/10 00:06:21;;;;;;;;;;;;;;;23.17;80.68;99396.94;5025649;28;20233;-37
2022/05/10 00:08:46;;;;;;;;;;;;;;;22.51;82.80;99396.72;5024516;28;19975;-37
2022/05/10 00:11:11;;;;;;;;;;;;;;;22.88;83.20;99397.41;5023183;28;20301;-37
2022/05/10 00:13:37;;;;;;;;;;;;;;;22.88;82.29;99392.16;5021149;28;20279;-37
2022/05/10 00:16:03;;;;;;;;;;;;;;;23.00;81.39;99394.81;5023854;28;20373;-37
2022/05/10 00:18:28;;;;;;;;;;;;;;;23.00;81.28;99390.38;5024432;28;19925;-37
2022/05/10 00:20:54;;;;;;;;;;;;;;;22.60;82.42;99389.94;5028527;28;20147;-37
2022/05/10 00:23:19;;;;;;;;;;;;;;;22.95;81.00;99382.84;5015405;28;20463;-37
2022/05/10 00:25:44;;;;;;;;;;;;;;;22.58;82.93;99382.19;5009844;28;19924;-37
2022/05/10 00:28:09;;;;;;;;;;;;;;;22.58;82.25;99395.31;5029019;28;19925;-38
2022/05/10 00:30:34;;;;;;;;;;;;;;;22.57;82.73;99375.25;5026870;28;19921;-38
2022/05/10 00:33:00;;;;;;;;;;;;;;;22.56;82.85;99370.97;5024140;28;19927;-38
2022/05/10 00:35:26;;;;;;;;;;;;;;;22.77;81.06;99365.88;5025824;28;19920;-38
2022/05/10 00:37:52;;;;;;;;;;;;;;;22.53;82.80;99372.03;5025380;28;19925;-39
2022/05/10 00:40:18;;;;;;;;;;;;;;;22.83;81.42;99361.91;5027975;28;20286;-39
2022/05/10 00:42:43;;;;;;;;;;;;;;;22.43;82.92;99362.34;5024515;28;19920;-38
2022/05/10 00:45:14;;;;;;;;;;;;;;;22.62;83.16;99356.53;5023453;28;19967;-38
2022/05/10 00:47:39;;;;;;;;;;;;;;;22.11;84.44;99355.91;5006074;28;19916;-38
2022/05/10 00:50:04;;;;;;;;;;;;;;;22.44;83.96;99357.00;5023402;28;20006;-38
2022/05/10 00:52:30;;;;;;;;;;;;;;;22.27;84.99;99357.41;5020948;28;20710;-38
2022/05/10 00:54:55;;;;;;;;;;;;;;;22.50;82.43;99355.69;5022878;28;20109;-38
2022/05/10 00:57:31;;;;;;;;;;;;;;;22.62;83.48;99352.09;5024213;28;19924;-38
2022/05/10 01:00:10;;;;;;;;;;;;;;;22.95;80.90;99350.50;5022762;28;20281;-38
2022/05/10 01:02:54;;;;;;;;;;;;;;;22.58;83.95;99348.06;5002750;28;19934;-38
2022/05/10 01:05:40;;;;;;;;;;;;;;;22.16;86.10;99352.94;5015075;28;20247;-38
2022/05/10 01:08:15;;;;;;;;;;;;;;;22.53;83.30;99337.94;5020295;28;20016;-38
2022/05/10 01:10:43;;;;;;;;;;;;;;;22.09;86.24;99341.22;5003794;28;20184;-38
2022/05/10 01:13:12;;;;;;;;;;;;;;;22.10;85.49;99338.50;5022319;28;19916;-38
2022/05/10 01:15:37;;;;;;;;;;;;;;;21.98;86.55;99334.13;5003759;28;20036;-38
2022/05/10 01:18:03;;;;;;;;;;;;;;;22.20;84.99;99329.94;5021066;28;19926;-38
2022/05/10 01:20:30;;;;;;;;;;;;;;;22.51;83.15;99337.19;5021481;28;19921;-38
2022/05/10 01:23:18;;;;;;;;;;;;;;;22.31;83.34;99332.63;5021478;28;20039;-38
2022/05/10 01:25:48;;;;;;;;;;;;;;;22.19;84.91;99336.97;5022033;28;19921;-38
2022/05/10 01:28:13;;;;;;;;;;;;;;;22.47;82.73;99330.50;5006918;28;20398;-38
2022/05/10 01:30:39;;;;;;;;;;;;;;;22.75;82.56;99328.38;5025607;28;19975;-38
2022/05/10 01:35:57;;;;;;;;;;;;;;;22.80;82.14;99330.66;5022845;28;19927;-38
2022/05/10 01:38:23;;;;;;;;;;;;;;;22.07;85.22;99330.84;5004036;28;19929;-38
2022/05/10 01:40:48;;;;;;;;;;;;;;;22.12;85.60;99326.09;5021323;28;19921;-38
2022/05/10 01:43:37;;;;;;;;;;;;;;;22.42;84.85;99323.91;5009039;28;19928;-38
2022/05/10 01:46:13;;;;;;;;;;;;;;;22.79;82.13;99321.13;5015032;28;19924;-38
2022/05/10 01:48:38;;;;;;;;;;;;;;;22.07;84.41;99319.50;5004712;28;19952;-38
2022/05/10 01:51:06;;;;;;;;;;;;;;;22.12;85.39;99318.25;5004023;28;20043;-38
2022/05/10 01:53:33;;;;;;;;;;;;;;;21.94;85.04;99322.22;5022379;28;19964;-38
2022/05/10 01:56:01;;;;;;;;;;;;;;;22.13;84.47;99317.28;5004562;28;20186;-38
2022/05/10 01:58:27;;;;;;;;;;;;;;;21.98;85.55;99318.41;5025227;28;19925;-37
2022/05/10 02:00:55;;;;;;;;;;;;;;;22.16;83.18;99318.00;5000136;28;20000;-38
2022/05/10 02:03:20;;;;;;;;;;;;;;;21.80;85.68;99320.59;5003876;28;19936;-38
2022/05/10 02:06:04;;;;;;;;;;;;;;;21.64;86.44;99320.88;5022450;28;19921;-38
2022/05/10 02:08:29;;;;;;;;;;;;;;;22.11;84.96;99311.31;5023546;28;20541;-38
2022/05/10 02:10:55;;;;;;;;;;;;;;;21.77;85.53;99317.38;5020710;28;19921;-38
2022/05/10 02:13:25;;;;;;;;;;;;;;;21.79;84.84;99316.31;5005056;28;20487;-38
2022/05/10 02:15:55;;;;;;;;;;;;;;;21.78;85.00;99312.03;5003805;28;19974;-38
2022/05/10 02:18:41;;;;;;;;;;;;;;;21.94;84.16;99317.00;5001677;28;19929;-38
2022/05/10 02:21:12;;;;;;;;;;;;;;;22.06;83.35;99300.31;5019865;28;19925;-38
2022/05/10 02:23:39;;;;;;;;;;;;;;;21.68;83.67;99301.38;5001614;28;20213;-38
2022/05/10 02:26:07;;;;;;;;;;;;;;;21.82;84.75;99302.16;5002839;28;19928;-38
2022/05/10 02:28:35;;;;;;;;;;;;;;;21.94;82.88;99293.38;5001563;28;19917;-38
2022/05/10 02:31:00;;;;;;;;;;;;;;;21.96;82.08;99294.09;5020628;28;19921;-38
2022/05/10 02:33:25;;;;;;;;;;;;;;;22.13;81.98;99291.03;5002806;28;20241;-38
2022/05/10 02:35:55;;;;;;;;;;;;;;;22.46;80.31;99286.00;4999615;28;19921;-38
2022/05/10 02:38:22;;;;;;;;;;;;;;;22.05;80.16;99288.16;5020704;28;20302;-38
2022/05/10 02:40:47;;;;;;;;;;;;;;;22.14;81.61;99284.84;5024336;28;19921;-38
2022/05/10 02:43:14;;;;;;;;;;;;;;;22.25;80.61;99288.47;5007605;28;20416;-38
2022/05/10 02:45:39;;;;;;;;;;;;;;;22.53;78.01;99282.81;5008821;28;20262;-38
2022/05/10 02:48:04;;;;;;;;;;;;;;;22.75;77.54;99287.22;5029827;28;20417;-38
2022/05/10 02:50:31;;;;;;;;;;;;;;;22.77;77.39;99284.47;5025430;28;20148;-38
2022/05/10 02:52:56;;;;;;;;;;;;;;;22.51;79.37;99282.09;5028837;28;20173;-38
2022/05/10 02:55:23;;;;;;;;;;;;;;;22.60;79.07;99279.69;5009164;28;19944;-38
2022/05/10 02:57:49;;;;;;;;;;;;;;;22.54;79.12;99278.38;5005397;28;19921;-38
2022/05/10 03:00:14;;;;;;;;;;;;;;;22.52;79.60;99275.03;5023840;28;19928;-38
2022/05/10 03:02:40;;;;;;;;;;;;;;;22.52;77.80;99275.88;5024189;28;20378;-38
2022/05/10 03:05:07;;;;;;;;;;;;;;;22.40;78.63;99270.72;5027823;28;20425;-38
2022/05/10 03:07:33;;;;;;;;;;;;;;;22.14;80.08;99276.13;5022042;28;19979;-38
2022/05/10 03:09:58;;;;;;;;;;;;;;;22.01;80.87;99265.75;5025622;28;20321;-38
2022/05/10 03:12:23;;;;;;;;;;;;;;;21.74;82.61;99273.06;5024452;28;19921;-38
2022/05/10 03:14:48;;;;;;;;;;;;;;;21.57;84.66;99274.28;5021826;28;20425;-38
2022/05/10 03:17:14;;;;;;;;;;;;;;;21.80;82.73;99265.53;5005642;28;20394;-38
2022/05/10 03:19:39;;;;;;;;;;;;;;;21.83;81.70;99267.13;5024313;28;20348;-38
2022/05/10 03:22:05;;;;;;;;;;;;;;;21.35;83.34;99280.19;5023357;28;19921;-38
2022/05/10 03:24:30;;;;;;;;;;;;;;;21.68;83.43;99269.91;5023579;28;19927;-38
2022/05/10 03:26:55;;;;;;;;;;;;;;;22.02;80.83;99263.97;5023781;28;19917;-38
2022/05/10 03:29:21;;;;;;;;;;;;;;;21.92;81.82;99266.44;5025170;28;19944;-38
2022/05/10 03:31:46;;;;;;;;;;;;;;;22.19;79.83;99267.91;5023449;28;20081;-38
2022/05/10 03:36:56;;;;;;;;;;;;;;;22.65;77.86;99267.03;5023752;28;20667;-38
2022/05/10 03:39:21;;;;;;;;;;;;;;;22.42;78.69;99259.19;5023230;28;20208;-38
2022/05/10 03:41:46;;;;;;;;;;;;;;;22.47;78.51;99256.19;5023931;28;19924;-38
2022/05/10 03:44:11;;;;;;;;;;;;;;;22.08;79.67;99255.63;5027028;28;20015;-38
2022/05/10 03:46:37;;;;;;;;;;;;;;;21.98;79.79;99259.88;5023931;28;19920;-38
2022/05/10 03:49:02;;;;;;;;;;;;;;;22.22;79.52;99258.06;5023302;28;19920;-38
2022/05/10 03:51:29;;;;;;;;;;;;;;;22.42;78.00;99253.06;5025774;28;19928;-38
2022/05/10 03:53:54;;;;;;;;;;;;;;;22.52;78.07;99254.88;5026589;28;19947;-38
2022/05/10 03:56:19;;;;;;;;;;;;;;;22.32;78.65;99258.19;5024176;28;19982;-38
2022/05/10 03:58:45;;;;;;;;;;;;;;;22.11;80.35;99256.22;5024337;28;19932;-37
2022/05/10 04:01:10;;;;;;;;;;;;;;;22.23;80.08;99253.66;5023480;28;19917;-38
2022/05/10 04:03:35;;;;;;;;;;;;;;;21.83;82.21;99259.25;5026350;28;20011;-38
2022/05/10 04:06:01;;;;;;;;;;;;;;;21.99;81.24;99254.53;5023010;28;19923;-38
2022/05/10 04:08:27;;;;;;;;;;;;;;;21.70;83.49;99257.53;5022758;28;20079;-38
2022/05/10 04:10:52;;;;;;;;;;;;;;;21.74;82.76;99252.09;5028090;28;20305;-38
2022/05/10 04:13:17;;;;;;;;;;;;;;;21.62;83.80;99257.28;5029746;28;19920;-38
2022/05/10 04:15:43;;;;;;;;;;;;;;;21.70;82.13;99256.69;5024956;28;20198;-38
2022/05/10 04:18:08;;;;;;;;;;;;;;;22.07;81.62;99252.16;5022370;28;19924;-38
2022/05/10 04:20:33;;;;;;;;;;;;;;;21.93;81.38;99255.81;5021811;28;19917;-38
2022/05/10 04:22:59;;;;;;;;;;;;;;;22.06;81.34;99260.97;5021373;28;19987;-38
2022/05/10 04:25:25;;;;;;;;;;;;;;;21.97;80.73;99251.19;5023501;28;19921;-38
2022/05/10 04:27:51;;;;;;;;;;;;;;;21.53;82.75;99263.19;5023804;28;20019;-38
2022/05/10 04:30:17;;;;;;;;;;;;;;;21.91;81.91;99254.25;5010054;28;19982;-38
2022/05/10 04:32:42;;;;;;;;;;;;;;;21.93;81.89;99252.38;5018882;28;19928;-38
2022/05/10 04:35:07;;;;;;;;;;;;;;;22.11;81.84;99256.22;5023022;28;20378;-38
2022/05/10 04:37:33;;;;;;;;;;;;;;;21.85;82.43;99259.97;5030177;28;20015;-38
2022/05/10 04:42:42;;;;;;;;;;;;;;;22.16;81.07;99252.41;5027097;28;19928;-38
2022/05/10 04:45:08;;;;;;;;;;;;;;;22.11;81.90;99256.22;5022106;28;19964;-38
2022/05/10 04:47:33;;;;;;;;;;;;;;;22.02;82.78;99251.66;5021809;28;19986;-38
2022/05/10 04:49:58;;;;;;;;;;;;;;;22.00;83.49;99255.38;5023980;28;19924;-38
2022/05/10 04:52:23;;;;;;;;;;;;;;;22.33;81.88;99249.38;5017528;28;19917;-37
2022/05/10 04:54:49;;;;;;;;;;;;;;;22.06;81.62;99253.13;5018817;28;20162;-37
2022/05/10 04:57:14;;;;;;;;;;;;;;;21.61;84.64;99258.22;5027888;28;20480;-38
2022/05/10 04:59:39;;;;;;;;;;;;;;;22.15;83.99;99246.34;5030663;28;19925;-39
2022/05/10 05:02:04;;;;;;;;;;;;;;;22.20;82.00;99244.19;5036319;28;19944;-38
2022/05/10 05:04:30;;;;;;;;;;;;;;;22.36;83.33;99232.56;5036890;28;20040;-38
2022/05/10 05:06:55;;;;;;;;;;;;;;;21.65;84.63;99254.41;5037268;28;19917;-38
2022/05/10 05:09:20;;;;;;;;;;;;;;;22.17;83.21;99254.94;5034802;28;19913;-38
2022/05/10 05:11:45;;;;;;;;;;;;;;;22.44;80.88;99244.16;5033313;28;19912;-38
2022/05/10 05:14:11;;;;;;;;;;;;;;;22.18;83.22;99246.09;5036761;28;19995;-38
2022/05/10 05:16:36;;;;;;;;;;;;;;;22.26;82.53;99249.03;5034277;28;19917;-38
2022/05/10 05:19:02;;;;;;;;;;;;;;;22.26;82.38;99249.03;5022793;28;19956;-38
2022/05/10 05:21:27;;;;;;;;;;;;;;;22.70;81.54;99251.78;5032384;28;19921;-38
2022/05/10 05:23:52;;;;;;;;;;;;;;;22.76;80.70;99251.28;5041087;28;20577;-38
2022/05/10 05:26:18;;;;;;;;;;;;;;;23.26;79.24;99243.81;5038211;28;19963;-38
2022/05/10 05:28:44;;;;;;;;;;;;;;;22.80;79.06;99250.09;5040228;28;19917;-38
2022/05/10 05:31:09;;;;;;;;;;;;;;;22.92;80.97;99256.16;5033982;28;19947;-38
2022/05/10 05:33:34;;;;;;;;;;;;;;;23.08;78.74;99251.41;5038275;28;20717;-38
2022/05/10 05:35:59;;;;;;;;;;;;;;;23.26;80.50;99254.31;5035454;28;20400;-38
2022/05/10 05:38:26;;;;;;;;;;;;;;;23.11;78.69;99255.56;5025739;28;20663;-38
2022/05/10 05:40:51;;;;;;;;;;;;;;;23.24;81.89;99256.28;5032401;28;20024;-38
2022/05/10 05:43:18;;;;;;;;;;;;;;;23.10;79.94;99259.97;5023360;28;20008;-38
2022/05/10 05:45:43;;;;;;;;;;;;;;;23.53;79.98;99256.50;5035749;28;20752;-38
2022/05/10 05:48:08;;;;;;;;;;;;;;;23.70;77.59;99249.88;5038998;28;19920;-38
2022/05/10 05:50:33;;;;;;;;;;;;;;;23.56;81.61;99252.78;5037457;28;19991;-38
2022/05/10 05:52:59;;;;;;;;;;;;;;;23.69;79.92;99255.25;5032271;28;19917;-38
2022/05/10 05:55:25;;;;;;;;;;;;;;;23.46;79.97;99255.34;5036529;28;19924;-38
2022/05/10 05:57:50;;;;;;;;;;;;;;;23.19;81.73;99253.16;5014407;28;19972;-38
2022/05/10 06:00:17;;;;;;;;;;;;;;;23.55;79.73;99256.41;5035150;28;20061;-38
2022/05/10 06:02:43;;;;;;;;;;;;;;;23.28;80.40;99252.41;5030573;28;19924;-38
2022/05/10 06:05:08;;;;;;;;;;;;;;;23.83;78.56;99241.81;5040354;28;19921;-38
2022/05/10 06:07:33;;;;;;;;;;;;;;;23.90;77.45;99250.03;5031954;28;19917;-38
2022/05/10 06:09:59;;;;;;;;;;;;;;;23.11;80.75;99259.03;5035310;28;20773;-38
2022/05/10 06:12:24;;;;;;;;;;;;;;;23.28;81.33;99251.59;5032278;28;20049;-38
2022/05/10 06:14:49;;;;;;;;;;;;;;;23.44;79.73;99256.44;5017401;28;19963;-38
2022/05/10 06:17:15;;;;;;;;;;;;;;;23.09;81.93;99257.50;5038895;28;20290;-38
2022/05/10 06:19:40;;;;;;;;;;;;;;;23.64;81.80;99258.28;5037641;28;19951;-39
2022/05/10 06:22:06;;;;;;;;;;;;;;;23.53;81.10;99258.31;5038220;28;20441;-38
2022/05/10 06:24:31;;;;;;;;;;;;;;;23.80;80.39;99253.44;5021636;28;20289;-39
2022/05/10 06:26:57;;;;;;;;;;;;;;;23.90;82.11;99252.66;5040240;28;20003;-38
2022/05/10 06:29:22;;;;;;;;;;;;;;;23.78;82.06;99252.72;5040602;28;19959;-38
2022/05/10 06:31:48;;;;;;;;;;;;;;;24.50;79.56;99256.38;5034696;28;19972;-38
2022/05/10 06:34:13;;;;;;;;;;;;;;;24.13;80.84;99254.22;5040600;28;19981;-38
2022/05/10 06:36:39;;;;;;;;;;;;;;;24.72;79.53;99254.53;5040665;28;20305;-38
2022/05/10 06:39:04;;;;;;;;;;;;;;;25.19;77.28;99247.75;5036648;28;20039;-38
2022/05/10 06:41:31;;;;;;;;;;;;;;;25.14;75.63;99249.09;5037704;28;20326;-38
2022/05/10 06:43:56;;;;;;;;;;;;;;;25.55;76.09;99242.78;5040907;28;20974;-38
2022/05/10 06:46:21;;;;;;;;;;;;;;;25.97;71.19;99231.09;5022222;28;20007;-38
2022/05/10 06:48:47;;;;;;;;;;;;;;;25.50;74.32;99242.38;5039622;28;20489;-39
2022/05/10 06:51:13;;;;;;;;;;;;;;;25.04;76.67;99243.78;5017467;28;19917;-38
2022/05/10 06:53:39;;;;;;;;;;;;;;;25.38;71.64;99239.00;5041422;28;20420;-39
2022/05/10 06:56:05;;;;;;;;;;;;;;;26.18;71.48;99229.09;5039644;28;19917;-38
2022/05/10 06:58:30;;;;;;;;;;;;;;;25.52;73.10;99243.06;5015196;28;19929;-38
2022/05/10 07:00:56;;;;;;;;;;;;;;;24.61;77.41;99242.31;5035621;28;20400;-38
2022/05/10 07:03:26;;;;;;;;;;;;;;;25.23;76.59;99232.50;5040318;28;20553;-39
2022/05/10 07:05:51;;;;;;;;;;;;;;;26.25;72.26;99218.81;5037853;28;20648;-38
2022/05/10 07:08:16;;;;;;;;;;;;;;;26.38;72.70;99229.06;5038757;28;19923;-39
2022/05/10 07:10:42;;;;;;;;;;;;;;;26.29;73.01;99236.03;5042906;28;20433;-38
2022/05/10 07:13:07;;;;;;;;;;;;;;;26.81;71.30;99227.63;5036421;28;20503;-39
2022/05/10 07:15:32;;;;;;;;;;;;;;;26.76;68.99;99227.25;5037969;28;19962;-39
2022/05/10 07:17:58;;;;;;;;;;;;;;;27.57;70.55;99227.25;5034841;28;19920;-39
2022/05/10 07:20:23;;;;;;;;;;;;;;;27.10;67.22;99217.72;5037401;28;20520;-38
2022/05/10 07:22:48;;;;;;;;;;;;;;;27.28;67.39;99219.59;5023554;28;19921;-39
2022/05/10 07:25:15;;;;;;;;;;;;;;;27.92;69.16;99215.84;5022528;28;19928;-39
2022/05/10 07:27:41;;;;;;;;;;;;;;;27.21;69.45;99219.34;5041533;28;19917;-39
2022/05/10 07:30:06;;;;;;;;;;;;;;;27.36;70.86;99221.47;5039002;28;20420;-38
2022/05/10 07:32:32;;;;;;;;;;;;;;;27.59;68.81;99219.19;5018179;28;20008;-38
2022/05/10 07:35:01;;;;;;;;;;;;;;;27.77;69.43;99217.34;5034702;28;19916;-38
2022/05/10 07:37:27;;;;;;;;;;;;;;;28.49;63.69;99212.72;5038062;28;20433;-39
2022/05/10 07:39:52;;;;;;;;;;;;;;;28.33;64.46;99202.84;5035416;28;19948;-39
2022/05/10 07:42:17;;;;;;;;;;;;;;;27.67;68.90;99206.84;5038297;28;19924;-39
2022/05/10 07:44:42;;;;;;;;;;;;;;;28.95;65.04;99204.41;5036016;28;19916;-39
2022/05/10 07:47:09;;;;;;;;;;;;;;;28.11;64.65;99203.38;5037868;28;19917;-39
2022/05/10 07:49:34;;;;;;;;;;;;;;;28.33;62.09;99207.31;5040584;28;19940;-39
2022/05/10 07:51:59;;;;;;;;;;;;;;;28.13;65.91;99206.69;5022342;28;19917;-39
2022/05/10 07:54:25;;;;;;;;;;;;;;;28.09;63.60;99206.16;5036487;28;19959;-39
2022/05/10 07:56:50;;;;;;;;;;;;;;;28.24;64.24;99203.78;5039289;28;19921;-39
2022/05/10 07:59:15;;;;;;;;;;;;;;;28.41;65.46;99204.69;5038409;28;20362;-39
2022/05/10 08:01:40;;;;;;;;;;;;;;;28.59;64.49;99199.31;5038562;28;19924;-39
2022/05/10 08:04:06;;;;;;;;;;;;;;;28.67;63.72;99199.38;5040029;28;19921;-39
2022/05/10 08:06:32;;;;;;;;;;;;;;;28.14;63.21;99200.41;5037047;28;19917;-39
2022/05/10 08:08:57;;;;;;;;;;;;;;;28.07;61.75;99196.72;5034870;28;20539;-38
2022/05/10 08:11:22;;;;;;;;;;;;;;;28.50;65.03;99197.63;5035129;28;19956;-38
2022/05/10 08:13:48;;;;;;;;;;;;;;;29.40;62.16;99189.94;5036763;28;20011;-38
2022/05/10 08:16:13;;;;;;;;;;;;;;;30.32;60.92;99187.00;5030890;28;19959;-39
2022/05/10 08:18:45;;;;;;;;;;;;;;;30.42;55.62;99180.47;5038263;28;20890;-39
2022/05/10 08:21:10;;;;;;;;;;;;;;;30.35;57.11;99184.00;5020059;28;19920;-39
2022/05/10 08:23:36;;;;;;;;;;;;;;;30.34;55.06;99169.88;5037575;28;19975;-39
2022/05/10 08:26:02;;;;;;;;;;;;;;;30.58;55.58;99181.41;5038196;28;19917;-39
2022/05/10 08:28:28;;;;;;;;;;;;;;;29.98;54.74;99180.91;5036604;28;19916;-39
2022/05/10 08:30:54;;;;;;;;;;;;;;;29.92;53.31;99173.63;5037111;28;19917;-39
2022/05/10 08:33:23;;;;;;;;;;;;;;;30.38;52.92;99179.19;5034479;28;19917;-39
2022/05/10 08:35:49;;;;;;;;;;;;;;;30.63;52.84;99179.03;5017416;28;19917;-39
2022/05/10 08:38:14;;;;;;;;;;;;;;;30.92;50.70;99172.28;5037586;28;19921;-39
2022/05/10 08:40:47;;;;;;;;;;;;;;;30.92;51.78;99174.94;5037185;28;19917;-38
2022/05/10 08:43:16;;;;;;;;;;;;;;;30.87;51.14;99177.31;5016406;28;19925;-38
2022/05/10 08:45:41;;;;;;;;;;;;;;;31.09;52.65;99175.66;5019976;28;19924;-39
2022/05/10 08:48:07;;;;;;;;;;;;;;;30.62;52.67;99175.56;5017702;28;19917;-39
2022/05/10 08:50:32;;;;;;;;;;;;;;;31.29;51.76;99168.84;5035286;28;19971;-39
2022/05/10 08:52:57;;;;;;;;;;;;;;;31.67;49.67;99169.72;5031709;28;20015;-39
2022/05/10 08:55:27;;;;;;;;;;;;;;;31.52;49.07;99162.69;5021343;28;19924;-39
2022/05/10 08:57:58;;;;;;;;;;;;;;;31.62;49.26;99160.63;5038659;28;19920;-39
2022/05/10 09:00:27;;;;;;;;;;;;;;;32.22;50.00;99156.19;5034326;28;20302;-39
2022/05/10 09:02:54;;;;;;;;;;;;;;;31.62;47.72;99155.28;5033448;28;19924;-39
2022/05/10 09:05:37;;;;;;;;;;;;;;;31.61;46.79;99154.47;5035747;28;19916;-39
2022/05/10 09:08:11;;;;;;;;;;;;;;;31.40;48.71;99157.78;5036893;28;19916;-39
2022/05/10 09:10:50;;;;;;;;;;;;;;;31.67;46.29;99153.72;5035276;28;19909;-38
2022/05/10 09:13:15;;;;;;;;;;;;;;;32.65;46.81;99151.00;5038409;28;19917;-39
2022/05/10 09:15:53;;;;;;;;;;;;;;;31.16;45.09;99150.84;5008473;28;19921;-39
2022/05/10 09:18:23;;;;;;;;;;;;;;;32.34;46.00;99141.34;5036982;28;19959;-39
2022/05/10 09:20:52;;;;;;;;;;;;;;;31.95;42.19;99145.13;5020600;28;19916;-39
2022/05/10 09:23:19;;;;;;;;;;;;;;;32.32;43.98;99143.41;5038075;28;20009;-39
2022/05/10 09:25:45;;;;;;;;;;;;;;;31.48;41.54;99127.66;5034324;28;19917;-39
2022/05/10 09:28:28;;;;;;;;;;;;;;;31.55;43.19;99136.56;5038333;28;19920;-39
2022/05/10 09:36:26;;;;;;;;;;;;;;;30.51;45.05;99129.94;5035651;28;19924;-39
2022/05/10 09:38:51;;;;;;;;;;;;;;;31.05;43.10;99127.31;5021564;28;19948;-39
2022/05/10 09:41:23;;;;;;;;;;;;;;;32.42;41.49;99125.25;5039606;28;19960;-38
2022/05/10 09:43:48;;;;;;;;;;;;;;;32.80;40.03;99127.78;5037356;28;19917;-38
2022/05/10 09:46:25;;;;;;;;;;;;;;;31.17;41.82;99120.56;5033450;28;19924;-39
2022/05/10 09:48:51;;;;;;;;;;;;;;;31.92;44.46;99118.84;5039477;28;19927;-39
2022/05/10 09:51:23;;;;;;;;;;;;;;;32.00;43.80;99113.47;5031210;28;19917;-39
2022/05/10 09:53:48;;;;;;;;;;;;;;;32.12;42.96;99118.34;5033570;28;19994;-38
2022/05/10 09:56:26;;;;;;;;;;;;;;;31.21;42.84;99108.53;5037760;28;19945;-38
2022/05/10 09:59:05;;;;;;;;;;;;;;;29.88;40.86;99108.59;5040288;28;20477;-39
2022/05/10 10:01:41;;;;;;;;;;;;;;;31.48;40.87;99101.03;5031978;28;20293;-38
2022/05/10 10:04:17;;;;;;;;;;;;;;;29.84;40.42;99107.28;5037570;28;20061;-39
2022/05/10 10:06:42;;;;;;;;;;;;;;;32.59;40.64;99093.88;5021989;28;19924;-39
2022/05/10 10:09:08;;;;;;;;;;;;;;;32.73;39.39;99100.22;5038916;28;19920;-39
2022/05/10 10:11:34;;;;;;;;;;;;;;;31.75;42.94;99106.72;5032661;28;19924;-39
2022/05/10 10:14:03;;;;;;;;;;;;;;;33.95;38.21;99083.91;5037378;28;19917;-39
2022/05/10 10:16:30;;;;;;;;;;;;;;;32.60;38.42;99095.56;5022058;28;19959;-39
2022/05/10 10:19:02;;;;;;;;;;;;;;;32.47;37.99;99093.53;5014531;28;20008;-39
2022/05/10 10:21:44;;;;;;;;;;;;;;;32.78;38.09;99097.78;5018575;28;19916;-39
2022/05/10 10:24:09;;;;;;;;;;;;;;;32.52;38.45;99092.19;5037954;28;19928;-39
2022/05/10 10:26:39;;;;;;;;;;;;;;;33.25;37.34;99091.03;5015491;28;19917;-39
2022/05/10 10:29:10;;;;;;;;;;;;;;;33.20;37.54;99080.13;5007533;28;20452;-39
2022/05/10 10:31:36;;;;;;;;;;;;;;;31.56;36.78;99087.63;5026572;28;19976;-39
2022/05/10 10:34:13;;;;;;;;;;;;;;;32.34;38.17;99082.72;5029552;28;19916;-39
2022/05/10 10:36:41;;;;;;;;;;;;;;;33.26;37.09;99084.69;5007473;28;19940;-39
2022/05/10 10:39:12;;;;;;;;;;;;;;;32.66;39.47;99084.16;5026336;28;20045;-39
2022/05/10 10:41:51;;;;;;;;;;;;;;;33.52;37.73;99069.88;5006110;28;19971;-39
2022/05/10 10:44:23;;;;;;;;;;;;;;;32.05;39.30;99070.31;5031900;28;20043;-39
2022/05/10 10:47:07;;;;;;;;;;;;;;;32.01;38.38;99069.84;5009360;28;19939;-39
2022/05/10 10:49:35;;;;;;;;;;;;;;;32.09;37.27;99072.41;5024951;28;19917;-39
2022/05/10 10:52:00;;;;;;;;;;;;;;;32.09;35.35;99085.72;5009438;28;19920;-39
2022/05/10 10:54:26;;;;;;;;;;;;;;;32.56;36.43;99062.28;5032089;28;20499;-39
2022/05/10 10:57:10;;;;;;;;;;;;;;;32.02;37.32;99067.97;5028775;28;20016;-39
2022/05/10 10:59:48;;;;;;;;;;;;;;;32.56;36.40;99056.94;5029157;28;19995;-39
2022/05/10 11:02:32;;;;;;;;;;;;;;;33.45;36.05;99051.13;5011266;28;20483;-39
2022/05/10 11:05:00;;;;;;;;;;;;;;;32.59;36.56;99055.75;5029327;28;19924;-39
2022/05/10 11:07:25;;;;;;;;;;;;;;;31.99;36.06;99049.72;5029443;28;19916;-39
2022/05/10 11:09:53;;;;;;;;;;;;;;;33.57;37.11;99043.41;5032374;28;20714;-39
2022/05/10 11:12:25;;;;;;;;;;;;;;;32.00;38.23;99052.22;5011930;28;19928;-39
2022/05/10 11:14:50;;;;;;;;;;;;;;;32.23;36.04;99046.75;5007229;28;19921;-39
2022/05/10 11:17:16;;;;;;;;;;;;;;;32.67;38.86;99042.28;5030200;28;19972;-39
2022/05/10 11:20:00;;;;;;;;;;;;;;;32.42;35.33;99044.47;5030620;28;19929;-39
2022/05/10 11:22:25;;;;;;;;;;;;;;;32.13;36.79;99040.88;5008934;28;19921;-39
2022/05/10 11:25:06;;;;;;;;;;;;;;;32.35;37.92;99044.41;5031787;28;20322;-39
2022/05/10 11:27:47;;;;;;;;;;;;;;;32.49;36.70;99030.19;5031283;28;19955;-39
2022/05/10 11:30:19;;;;;;;;;;;;;;;32.56;38.12;99034.81;5018125;28;21017;-39
2022/05/10 11:33:03;;;;;;;;;;;;;;;32.45;37.19;99041.41;5016589;28;20794;-39
2022/05/10 11:35:32;;;;;;;;;;;;;;;33.62;36.76;99029.50;5017591;28;19917;-39
2022/05/10 11:37:59;;;;;;;;;;;;;;;29.66;38.83;99040.28;5033291;28;19951;-39
2022/05/10 11:40:24;;;;;;;;;;;;;;;31.19;37.87;99027.25;5031382;28;19917;-39
2022/05/10 11:43:10;;;;;;;;;;;;;;;32.82;36.27;99019.06;5032091;28;20851;-39
2022/05/10 11:45:47;;;;;;;;;;;;;;;32.64;35.45;99016.84;5013881;28;19942;-39
2022/05/10 11:48:31;;;;;;;;;;;;;;;32.28;36.39;99023.00;5031336;28;19927;-39
2022/05/10 11:54:06;;;;;;;;;;;;;;;31.16;36.85;99015.16;5030652;28;19927;-39
2022/05/10 11:56:33;;;;;;;;;;;;;;;30.81;36.50;99004.13;5034889;28;19925;-40
2022/05/10 11:59:01;;;;;;;;;;;;;;;32.30;35.83;98998.84;5027924;28;19941;-39
2022/05/10 12:01:40;;;;;;;;;;;;;;;32.11;35.51;98999.44;5012671;28;20035;-39
2022/05/10 12:04:05;;;;;;;;;;;;;;;32.37;36.27;98997.06;5030195;28;19975;-39
2022/05/10 12:06:32;;;;;;;;;;;;;;;32.85;34.87;98977.81;5012062;28;20467;-39
2022/05/10 12:08:57;;;;;;;;;;;;;;;31.95;33.82;98984.47;5035331;28;19921;-39
2022/05/10 12:11:30;;;;;;;;;;;;;;;31.65;33.70;98979.19;5030308;28;19935;-39
2022/05/10 12:22:12;;;;;;;;;;;;;;;32.28;36.07;98966.22;5015858;28;19924;-39
2022/05/10 12:24:45;;;;;;;;;;;;;;;32.93;33.17;98961.66;5012434;28;19921;-39
2022/05/10 12:27:11;;;;;;;;;;;;;;;32.88;33.27;98959.56;5011029;28;19929;-39
2022/05/10 12:29:39;;;;;;;;;;;;;;;32.24;33.74;98962.28;5029927;28;19924;-39
2022/05/10 12:32:23;;;;;;;;;;;;;;;31.91;34.56;98952.09;5026123;28;20023;-39
2022/05/10 12:34:58;;;;;;;;;;;;;;;32.04;34.06;98949.56;5025911;28;19921;-39
2022/05/10 12:37:30;;;;;;;;;;;;;;;32.74;34.14;98941.84;5027556;28;20394;-39
2022/05/10 12:39:56;;;;;;;;;;;;;;;33.27;34.56;98936.84;5028384;28;20397;-39
2022/05/10 12:42:21;;;;;;;;;;;;;;;32.28;35.52;98945.72;5028258;28;19972;-39
2022/05/10 12:45:05;;;;;;;;;;;;;;;32.11;36.57;98946.16;5030491;28;20468;-39
2022/05/10 12:47:36;;;;;;;;;;;;;;;32.87;35.11;98927.78;5025947;28;20779;-39
2022/05/10 12:50:04;;;;;;;;;;;;;;;31.87;34.56;98935.63;5005339;28;20715;-39
2022/05/10 12:52:38;;;;;;;;;;;;;;;32.66;36.15;98929.47;5005922;28;19925;-39
2022/05/10 12:55:05;;;;;;;;;;;;;;;32.61;36.88;98925.72;5028434;28;19920;-39
2022/05/10 12:57:32;;;;;;;;;;;;;;;33.24;35.31;98923.09;5030575;28;19960;-39
2022/05/10 13:00:11;;;;;;;;;;;;;;;33.17;35.15;98920.41;5010176;28;19924;-39
2022/05/10 13:02:37;;;;;;;;;;;;;;;33.72;35.33;98913.25;5020967;28;20814;-39
2022/05/10 13:05:04;;;;;;;;;;;;;;;33.48;34.35;98911.09;5027299;28;19920;-40
2022/05/10 13:07:33;;;;;;;;;;;;;;;33.27;34.86;98918.19;5014284;28;20425;-39
2022/05/10 13:09:59;;;;;;;;;;;;;;;32.92;34.69;98912.81;5027786;28;20332;-39
2022/05/10 13:12:36;;;;;;;;;;;;;;;32.13;36.25;98910.31;5008222;28;19921;-39
2022/05/10 13:15:03;;;;;;;;;;;;;;;33.46;35.70;98907.78;5027217;28;19924;-39
2022/05/10 13:17:33;;;;;;;;;;;;;;;32.94;36.82;98903.81;5005473;28;19923;-39